sensor_id;sensor_type;location;lat;lon;timestamp;temperature;humidity
41644;DHT22;44236;48.098;11.582;2023-02-01T00:02:00;17.90;45.60
41644;DHT22;44236;48.098;11.582;2023-02-01T00:04:26;17.90;45.60
41644;DHT22;44236;48.098;11.582;2023-02-01T00:06:52;17.80;45.40
41644;DHT22;44236;48.098;11.582;2023-02-01T00:09:18;17.90;45.10
41644;DHT22;44236;48.098;11.582;2023-02-01T00:11:43;17.80;45.20
41644;DHT22;44236;48.098;11.582;2023-02-01T00:14:12;17.80;45.20
41644;DHT22;44236;48.098;11.582;2023-02-01T00:16:39;17.80;45.20
41644;DHT22;44236;48.098;11.582;2023-02-01T00:19:09;17.80;45.00
41644;DHT22;44236;48.098;11.582;2023-02-01T00:21:34;17.80;45.10
41644;DHT22;44236;48.098;11.582;2023-02-01T00:24:00;17.80;45.50
41644;DHT22;44236;48.098;11.582;2023-02-01T00:26:40;17.80;45.20
41644;DHT22;44236;48.098;11.582;2023-02-01T00:29:11;17.70;45.50
41644;DHT22;44236;48.098;11.582;2023-02-01T00:31:37;17.70;45.20
41644;DHT22;44236;48.098;11.582;2023-02-01T00:34:03;17.70;45.20
41644;DHT22;44236;48.098;11.582;2023-02-01T00:36:29;17.70;45.10
41644;DHT22;44236;48.098;11.582;2023-02-01T00:38:55;17.70;45.20
41644;DHT22;44236;48.098;11.582;2023-02-01T00:41:21;17.70;45.10
41644;DHT22;44236;48.098;11.582;2023-02-01T00:43:48;17.70;45.10
41644;DHT22;44236;48.098;11.582;2023-02-01T00:46:14;17.70;45.10
41644;DHT22;44236;48.098;11.582;2023-02-01T00:48:40;17.70;45.20
41644;DHT22;44236;48.098;11.582;2023-02-01T00:51:09;17.70;45.30
41644;DHT22;44236;48.098;11.582;2023-02-01T00:53:36;17.60;45.20
41644;DHT22;44236;48.098;11.582;2023-02-01T00:56:02;17.60;45.20
41644;DHT22;44236;48.098;11.582;2023-02-01T00:58:28;17.60;45.30
41644;DHT22;44236;48.098;11.582;2023-02-01T01:03:30;17.60;45.30
41644;DHT22;44236;48.098;11.582;2023-02-01T01:05:59;17.60;45.30
41644;DHT22;44236;48.098;11.582;2023-02-01T01:08:26;17.60;45.00
41644;DHT22;44236;48.098;11.582;2023-02-01T01:10:52;17.60;45.20
41644;DHT22;44236;48.098;11.582;2023-02-01T01:13:18;17.60;45.20
41644;DHT22;44236;48.098;11.582;2023-02-01T01:15:43;17.60;45.20
41644;DHT22;44236;48.098;11.582;2023-02-01T01:18:09;17.60;44.80
41644;DHT22;44236;48.098;11.582;2023-02-01T01:20:36;17.50;45.00
41644;DHT22;44236;48.098;11.582;2023-02-01T01:23:03;17.50;45.00
41644;DHT22;44236;48.098;11.582;2023-02-01T01:25:32;17.50;45.00
41644;DHT22;44236;48.098;11.582;2023-02-01T01:27:58;17.50;44.80
41644;DHT22;44236;48.098;11.582;2023-02-01T01:30:23;17.50;44.80
41644;DHT22;44236;48.098;11.582;2023-02-01T01:32:49;17.50;45.20
41644;DHT22;44236;48.098;11.582;2023-02-01T01:35:15;17.50;44.80
41644;DHT22;44236;48.098;11.582;2023-02-01T01:37:40;17.50;44.70
41644;DHT22;44236;48.098;11.582;2023-02-01T01:40:07;17.50;44.70
41644;DHT22;44236;48.098;11.582;2023-02-01T01:42:41;17.40;45.10
41644;DHT22;44236;48.098;11.582;2023-02-01T01:45:28;17.40;45.00
41644;DHT22;44236;48.098;11.582;2023-02-01T01:48:07;17.40;44.90
41644;DHT22;44236;48.098;11.582;2023-02-01T01:50:42;17.40;44.90
41644;DHT22;44236;48.098;11.582;2023-02-01T01:53:12;17.40;44.80
41644;DHT22;44236;48.098;11.582;2023-02-01T01:55:42;17.40;44.60
41644;DHT22;44236;48.098;11.582;2023-02-01T01:58:13;17.40;44.90
41644;DHT22;44236;48.098;11.582;2023-02-01T02:00:40;17.40;45.10
41644;DHT22;44236;48.098;11.582;2023-02-01T02:03:13;17.40;45.00
41644;DHT22;44236;48.098;11.582;2023-02-01T02:05:40;17.40;44.80
41644;DHT22;44236;48.098;11.582;2023-02-01T02:08:06;17.30;44.80
41644;DHT22;44236;48.098;11.582;2023-02-01T02:10:32;17.30;44.70
41644;DHT22;44236;48.098;11.582;2023-02-01T02:13:16;17.30;44.90
41644;DHT22;44236;48.098;11.582;2023-02-01T02:27:08;17.30;44.70
41644;DHT22;44236;48.098;11.582;2023-02-01T02:30:23;17.30;44.50
41644;DHT22;44236;48.098;11.582;2023-02-01T02:38:54;17.30;44.70
41644;DHT22;44236;48.098;11.582;2023-02-01T02:44:49;17.30;44.80
41644;DHT22;44236;48.098;11.582;2023-02-01T02:56:27;17.20;44.70
41644;DHT22;44236;48.098;11.582;2023-02-01T02:59:14;17.20;44.40
41644;DHT22;44236;48.098;11.582;2023-02-01T03:01:59;17.20;44.70
41644;DHT22;44236;48.098;11.582;2023-02-01T03:04:43;17.20;44.60
41644;DHT22;44236;48.098;11.582;2023-02-01T03:12:53;17.10;44.40
41644;DHT22;44236;48.098;11.582;2023-02-01T03:17:58;17.10;44.40
41644;DHT22;44236;48.098;11.582;2023-02-01T03:20:27;17.10;44.20
41644;DHT22;44236;48.098;11.582;2023-02-01T03:22:55;17.10;44.30
41644;DHT22;44236;48.098;11.582;2023-02-01T03:25:27;17.10;44.30
41644;DHT22;44236;48.098;11.582;2023-02-01T03:27:58;17.10;44.20
41644;DHT22;44236;48.098;11.582;2023-02-01T03:30:31;17.10;44.20
41644;DHT22;44236;48.098;11.582;2023-02-01T03:33:02;17.10;44.30
41644;DHT22;44236;48.098;11.582;2023-02-01T03:41:13;17.10;44.20
41644;DHT22;44236;48.098;11.582;2023-02-01T03:43:53;17.00;44.20
41644;DHT22;44236;48.098;11.582;2023-02-01T03:46:39;17.10;44.20
41644;DHT22;44236;48.098;11.582;2023-02-01T03:49:12;17.10;44.20
41644;DHT22;44236;48.098;11.582;2023-02-01T03:51:40;17.00;44.20
41644;DHT22;44236;48.098;11.582;2023-02-01T03:54:11;17.00;44.20
41644;DHT22;44236;48.098;11.582;2023-02-01T03:56:38;17.00;44.20
41644;DHT22;44236;48.098;11.582;2023-02-01T03:59:07;17.00;44.30
41644;DHT22;44236;48.098;11.582;2023-02-01T04:01:33;17.00;44.00
41644;DHT22;44236;48.098;11.582;2023-02-01T04:03:59;17.00;44.20
41644;DHT22;44236;48.098;11.582;2023-02-01T04:06:25;17.00;44.20
41644;DHT22;44236;48.098;11.582;2023-02-01T04:08:51;17.00;44.30
41644;DHT22;44236;48.098;11.582;2023-02-01T04:11:17;17.00;44.40
41644;DHT22;44236;48.098;11.582;2023-02-01T04:13:43;17.00;44.40
41644;DHT22;44236;48.098;11.582;2023-02-01T04:16:09;16.90;44.40
41644;DHT22;44236;48.098;11.582;2023-02-01T04:18:35;16.90;44.40
41644;DHT22;44236;48.098;11.582;2023-02-01T04:21:01;16.90;44.10
41644;DHT22;44236;48.098;11.582;2023-02-01T04:23:28;16.90;44.40
41644;DHT22;44236;48.098;11.582;2023-02-01T04:25:54;16.90;44.30
41644;DHT22;44236;48.098;11.582;2023-02-01T04:28:23;16.90;44.30
41644;DHT22;44236;48.098;11.582;2023-02-01T04:30:49;16.90;44.10
41644;DHT22;44236;48.098;11.582;2023-02-01T04:33:14;16.90;44.10
41644;DHT22;44236;48.098;11.582;2023-02-01T04:35:40;16.90;43.90
41644;DHT22;44236;48.098;11.582;2023-02-01T04:38:06;16.90;44.10
41644;DHT22;44236;48.098;11.582;2023-02-01T04:40:32;16.90;43.90
41644;DHT22;44236;48.098;11.582;2023-02-01T04:43:00;17.00;44.00
41644;DHT22;44236;48.098;11.582;2023-02-01T04:45:25;17.00;43.80
41644;DHT22;44236;48.098;11.582;2023-02-01T04:47:51;16.90;43.80
41644;DHT22;44236;48.098;11.582;2023-02-01T04:50:17;17.00;43.80
41644;DHT22;44236;48.098;11.582;2023-02-01T04:52:42;17.00;43.80
41644;DHT22;44236;48.098;11.582;2023-02-01T04:55:10;16.90;43.70
41644;DHT22;44236;48.098;11.582;2023-02-01T04:57:36;16.90;43.70
41644;DHT22;44236;48.098;11.582;2023-02-01T05:00:04;16.90;43.90
41644;DHT22;44236;48.098;11.582;2023-02-01T05:02:30;16.90;43.70
41644;DHT22;44236;48.098;11.582;2023-02-01T05:04:57;16.90;43.60
41644;DHT22;44236;48.098;11.582;2023-02-01T05:07:23;16.90;43.50
41644;DHT22;44236;48.098;11.582;2023-02-01T05:09:48;16.90;43.70
41644;DHT22;44236;48.098;11.582;2023-02-01T05:12:17;16.90;43.60
41644;DHT22;44236;48.098;11.582;2023-02-01T05:15:01;16.90;44.20
41644;DHT22;44236;48.098;11.582;2023-02-01T05:17:27;16.90;43.60
41644;DHT22;44236;48.098;11.582;2023-02-01T05:19:52;16.90;43.50
41644;DHT22;44236;48.098;11.582;2023-02-01T05:22:18;16.90;43.40
41644;DHT22;44236;48.098;11.582;2023-02-01T05:24:46;16.90;43.00
41644;DHT22;44236;48.098;11.582;2023-02-01T05:27:12;16.90;43.60
41644;DHT22;44236;48.098;11.582;2023-02-01T05:29:37;16.90;43.50
41644;DHT22;44236;48.098;11.582;2023-02-01T05:32:03;16.90;43.40
41644;DHT22;44236;48.098;11.582;2023-02-01T05:34:29;16.90;43.60
41644;DHT22;44236;48.098;11.582;2023-02-01T05:36:54;16.90;43.60
41644;DHT22;44236;48.098;11.582;2023-02-01T05:39:20;16.90;43.30
41644;DHT22;44236;48.098;11.582;2023-02-01T05:41:45;17.00;43.40
41644;DHT22;44236;48.098;11.582;2023-02-01T05:44:11;17.00;43.50
41644;DHT22;44236;48.098;11.582;2023-02-01T05:46:37;17.00;43.50
41644;DHT22;44236;48.098;11.582;2023-02-01T05:49:03;17.00;43.40
41644;DHT22;44236;48.098;11.582;2023-02-01T05:51:29;17.10;43.70
41644;DHT22;44236;48.098;11.582;2023-02-01T05:53:55;17.10;43.70
41644;DHT22;44236;48.098;11.582;2023-02-01T05:56:20;17.10;43.70
41644;DHT22;44236;48.098;11.582;2023-02-01T05:58:46;17.20;43.80
41644;DHT22;44236;48.098;11.582;2023-02-01T06:01:12;17.20;43.80
41644;DHT22;44236;48.098;11.582;2023-02-01T06:03:37;17.20;43.60
41644;DHT22;44236;48.098;11.582;2023-02-01T06:06:03;17.30;44.10
41644;DHT22;44236;48.098;11.582;2023-02-01T06:08:29;17.30;43.90
41644;DHT22;44236;48.098;11.582;2023-02-01T06:11:00;17.30;44.10
41644;DHT22;44236;48.098;11.582;2023-02-01T06:13:27;17.30;44.20
41644;DHT22;44236;48.098;11.582;2023-02-01T06:15:52;17.40;44.60
41644;DHT22;44236;48.098;11.582;2023-02-01T06:18:18;17.40;43.90
41644;DHT22;44236;48.098;11.582;2023-02-01T06:20:44;17.40;43.80
41644;DHT22;44236;48.098;11.582;2023-02-01T06:23:09;17.50;44.40
41644;DHT22;44236;48.098;11.582;2023-02-01T06:25:35;17.50;44.80
41644;DHT22;44236;48.098;11.582;2023-02-01T06:28:01;17.50;44.80
41644;DHT22;44236;48.098;11.582;2023-02-01T06:30:27;17.50;44.70
41644;DHT22;44236;48.098;11.582;2023-02-01T06:32:52;17.50;45.10
41644;DHT22;44236;48.098;11.582;2023-02-01T06:35:19;17.50;45.30
41644;DHT22;44236;48.098;11.582;2023-02-01T06:37:44;17.60;45.30
41644;DHT22;44236;48.098;11.582;2023-02-01T06:40:11;17.60;45.50
41644;DHT22;44236;48.098;11.582;2023-02-01T06:42:37;17.60;45.60
41644;DHT22;44236;48.098;11.582;2023-02-01T06:45:03;17.60;45.60
41644;DHT22;44236;48.098;11.582;2023-02-01T06:47:28;17.60;45.20
41644;DHT22;44236;48.098;11.582;2023-02-01T06:49:56;17.60;45.40
41644;DHT22;44236;48.098;11.582;2023-02-01T06:52:22;17.70;44.00
41644;DHT22;44236;48.098;11.582;2023-02-01T06:54:47;17.70;44.80
41644;DHT22;44236;48.098;11.582;2023-02-01T06:57:14;17.70;44.60
41644;DHT22;44236;48.098;11.582;2023-02-01T06:59:39;17.70;45.80
41644;DHT22;44236;48.098;11.582;2023-02-01T07:02:05;17.70;45.70
41644;DHT22;44236;48.098;11.582;2023-02-01T07:04:31;17.70;45.40
41644;DHT22;44236;48.098;11.582;2023-02-01T07:06:56;17.70;45.40
41644;DHT22;44236;48.098;11.582;2023-02-01T07:09:22;17.70;45.20
41644;DHT22;44236;48.098;11.582;2023-02-01T07:11:48;17.70;45.30
41644;DHT22;44236;48.098;11.582;2023-02-01T07:14:13;17.70;45.20
41644;DHT22;44236;48.098;11.582;2023-02-01T07:16:39;17.70;45.30
41644;DHT22;44236;48.098;11.582;2023-02-01T07:19:05;17.80;45.10
41644;DHT22;44236;48.098;11.582;2023-02-01T07:21:30;17.70;45.00
41644;DHT22;44236;48.098;11.582;2023-02-01T07:23:56;17.70;45.10
41644;DHT22;44236;48.098;11.582;2023-02-01T07:26:23;17.70;45.20
41644;DHT22;44236;48.098;11.582;2023-02-01T07:28:48;17.70;45.00
41644;DHT22;44236;48.098;11.582;2023-02-01T07:31:17;17.80;45.20
41644;DHT22;44236;48.098;11.582;2023-02-01T07:33:48;17.80;45.00
41644;DHT22;44236;48.098;11.582;2023-02-01T07:36:17;17.80;44.40
41644;DHT22;44236;48.098;11.582;2023-02-01T07:38:43;17.80;44.00
41644;DHT22;44236;48.098;11.582;2023-02-01T07:41:09;17.80;43.80
41644;DHT22;44236;48.098;11.582;2023-02-01T07:43:36;17.90;44.80
41644;DHT22;44236;48.098;11.582;2023-02-01T07:46:03;17.90;45.40
41644;DHT22;44236;48.098;11.582;2023-02-01T07:48:29;17.90;45.20
41644;DHT22;44236;48.098;11.582;2023-02-01T07:51:07;17.80;45.00
41644;DHT22;44236;48.098;11.582;2023-02-01T07:53:34;17.80;44.90
41644;DHT22;44236;48.098;11.582;2023-02-01T07:56:00;17.80;44.80
41644;DHT22;44236;48.098;11.582;2023-02-01T07:58:26;18.40;45.30
41644;DHT22;44236;48.098;11.582;2023-02-01T08:00:52;17.80;44.80
41644;DHT22;44236;48.098;11.582;2023-02-01T08:03:37;17.80;45.00
41644;DHT22;44236;48.098;11.582;2023-02-01T08:06:03;17.80;44.80
41644;DHT22;44236;48.098;11.582;2023-02-01T08:08:29;17.80;44.90
41644;DHT22;44236;48.098;11.582;2023-02-01T08:11:03;17.80;44.80
41644;DHT22;44236;48.098;11.582;2023-02-01T08:13:29;17.80;44.80
41644;DHT22;44236;48.098;11.582;2023-02-01T08:16:03;17.80;44.90
41644;DHT22;44236;48.098;11.582;2023-02-01T08:18:29;17.80;45.30
41644;DHT22;44236;48.098;11.582;2023-02-01T08:20:55;17.80;44.80
41644;DHT22;44236;48.098;11.582;2023-02-01T08:23:22;17.90;44.80
41644;DHT22;44236;48.098;11.582;2023-02-01T08:25:48;17.90;44.90
41644;DHT22;44236;48.098;11.582;2023-02-01T08:28:14;17.80;44.70
41644;DHT22;44236;48.098;11.582;2023-02-01T08:30:40;17.80;44.80
41644;DHT22;44236;48.098;11.582;2023-02-01T08:33:07;17.80;44.90
41644;DHT22;44236;48.098;11.582;2023-02-01T08:35:35;17.90;44.80
41644;DHT22;44236;48.098;11.582;2023-02-01T08:38:01;17.80;44.70
41644;DHT22;44236;48.098;11.582;2023-02-01T08:40:27;17.80;44.70
41644;DHT22;44236;48.098;11.582;2023-02-01T08:42:53;17.80;44.70
41644;DHT22;44236;48.098;11.582;2023-02-01T08:45:24;17.90;44.70
41644;DHT22;44236;48.098;11.582;2023-02-01T08:47:51;17.80;44.70
41644;DHT22;44236;48.098;11.582;2023-02-01T08:50:17;17.90;44.70
41644;DHT22;44236;48.098;11.582;2023-02-01T08:52:43;17.90;44.70
41644;DHT22;44236;48.098;11.582;2023-02-01T08:55:09;17.90;44.70
41644;DHT22;44236;48.098;11.582;2023-02-01T08:57:35;17.90;44.50
41644;DHT22;44236;48.098;11.582;2023-02-01T09:00:00;17.80;44.40
41644;DHT22;44236;48.098;11.582;2023-02-01T09:02:26;17.90;44.40
41644;DHT22;44236;48.098;11.582;2023-02-01T09:04:52;17.90;44.50
41644;DHT22;44236;48.098;11.582;2023-02-01T09:07:18;17.90;44.40
41644;DHT22;44236;48.098;11.582;2023-02-01T09:09:44;17.90;44.60
41644;DHT22;44236;48.098;11.582;2023-02-01T09:12:10;17.90;44.40
41644;DHT22;44236;48.098;11.582;2023-02-01T09:14:36;17.90;44.40
41644;DHT22;44236;48.098;11.582;2023-02-01T09:17:02;17.90;44.40
41644;DHT22;44236;48.098;11.582;2023-02-01T09:19:27;17.90;44.40
41644;DHT22;44236;48.098;11.582;2023-02-01T09:21:53;17.90;44.30
41644;DHT22;44236;48.098;11.582;2023-02-01T09:24:19;17.90;44.40
41644;DHT22;44236;48.098;11.582;2023-02-01T09:26:44;17.90;44.40
41644;DHT22;44236;48.098;11.582;2023-02-01T09:29:10;17.90;44.30
41644;DHT22;44236;48.098;11.582;2023-02-01T09:31:36;17.90;44.30
41644;DHT22;44236;48.098;11.582;2023-02-01T09:34:02;17.90;44.20
41644;DHT22;44236;48.098;11.582;2023-02-01T09:36:28;18.00;44.30
41644;DHT22;44236;48.098;11.582;2023-02-01T09:38:54;17.90;44.20
41644;DHT22;44236;48.098;11.582;2023-02-01T09:46:58;18.00;44.10
41644;DHT22;44236;48.098;11.582;2023-02-01T09:49:31;18.00;44.10
41644;DHT22;44236;48.098;11.582;2023-02-01T09:52:00;18.00;44.10
41644;DHT22;44236;48.098;11.582;2023-02-01T09:54:34;18.00;44.10
41644;DHT22;44236;48.098;11.582;2023-02-01T09:57:24;18.00;44.10
41644;DHT22;44236;48.098;11.582;2023-02-01T09:59:57;18.00;44.00
41644;DHT22;44236;48.098;11.582;2023-02-01T10:02:26;18.00;44.00
41644;DHT22;44236;48.098;11.582;2023-02-01T10:04:57;18.00;43.90
41644;DHT22;44236;48.098;11.582;2023-02-01T10:10:12;18.00;43.90
41644;DHT22;44236;48.098;11.582;2023-02-01T10:26:04;18.00;43.80
41644;DHT22;44236;48.098;11.582;2023-02-01T10:28:33;18.00;43.80
41644;DHT22;44236;48.098;11.582;2023-02-01T10:31:02;18.00;43.70
41644;DHT22;44236;48.098;11.582;2023-02-01T10:33:39;18.00;43.70
41644;DHT22;44236;48.098;11.582;2023-02-01T10:36:16;18.00;43.60
41644;DHT22;44236;48.098;11.582;2023-02-01T10:38:45;18.00;43.70
41644;DHT22;44236;48.098;11.582;2023-02-01T10:41:15;18.00;43.60
41644;DHT22;44236;48.098;11.582;2023-02-01T10:43:43;18.00;43.70
41644;DHT22;44236;48.098;11.582;2023-02-01T10:46:09;18.00;43.60
41644;DHT22;44236;48.098;11.582;2023-02-01T10:48:36;17.60;43.40
41644;DHT22;44236;48.098;11.582;2023-02-01T10:51:12;18.00;43.60
41644;DHT22;44236;48.098;11.582;2023-02-01T10:53:50;18.00;43.60
41644;DHT22;44236;48.098;11.582;2023-02-01T10:56:25;18.00;43.60
41644;DHT22;44236;48.098;11.582;2023-02-01T10:58:52;18.00;43.50
41644;DHT22;44236;48.098;11.582;2023-02-01T11:01:30;18.00;43.40
41644;DHT22;44236;48.098;11.582;2023-02-01T11:03:58;18.00;43.50
41644;DHT22;44236;48.098;11.582;2023-02-01T11:09:01;18.00;43.40
41644;DHT22;44236;48.098;11.582;2023-02-01T11:16:47;18.00;43.30
41644;DHT22;44236;48.098;11.582;2023-02-01T11:19:16;18.00;43.30
41644;DHT22;44236;48.098;11.582;2023-02-01T11:21:42;18.00;43.40
41644;DHT22;44236;48.098;11.582;2023-02-01T11:24:33;18.00;43.30
41644;DHT22;44236;48.098;11.582;2023-02-01T11:27:03;18.00;43.30
41644;DHT22;44236;48.098;11.582;2023-02-01T11:29:37;18.00;43.70
41644;DHT22;44236;48.098;11.582;2023-02-01T11:32:04;18.10;43.20
41644;DHT22;44236;48.098;11.582;2023-02-01T11:34:54;18.00;43.10
41644;DHT22;44236;48.098;11.582;2023-02-01T11:37:59;18.10;43.20
41644;DHT22;44236;48.098;11.582;2023-02-01T11:42:58;18.10;43.20
41644;DHT22;44236;48.098;11.582;2023-02-01T11:45:26;18.00;43.10
41644;DHT22;44236;48.098;11.582;2023-02-01T11:47:54;18.00;43.20
41644;DHT22;44236;48.098;11.582;2023-02-01T11:50:48;18.00;43.40
41644;DHT22;44236;48.098;11.582;2023-02-01T11:56:36;18.00;43.10
41644;DHT22;44236;48.098;11.582;2023-02-01T12:01:44;18.00;43.00
41644;DHT22;44236;48.098;11.582;2023-02-01T12:37:15;18.00;42.70
41644;DHT22;44236;48.098;11.582;2023-02-01T12:42:23;18.00;42.70
41644;DHT22;44236;48.098;11.582;2023-02-01T12:45:06;18.00;42.70
41644;DHT22;44236;48.098;11.582;2023-02-01T12:47:52;18.00;42.60
41644;DHT22;44236;48.098;11.582;2023-02-01T12:50:31;18.00;42.50
41644;DHT22;44236;48.098;11.582;2023-02-01T12:53:30;18.00;42.60
41644;DHT22;44236;48.098;11.582;2023-02-01T12:55:55;18.00;42.60
41644;DHT22;44236;48.098;11.582;2023-02-01T12:58:35;18.00;42.60
41644;DHT22;44236;48.098;11.582;2023-02-01T13:01:19;18.00;42.50
41644;DHT22;44236;48.098;11.582;2023-02-01T13:06:37;18.00;42.50
41644;DHT22;44236;48.098;11.582;2023-02-01T13:09:24;18.00;42.50
41644;DHT22;44236;48.098;11.582;2023-02-01T13:11:54;18.00;42.40
41644;DHT22;44236;48.098;11.582;2023-02-01T13:15:02;18.00;42.40
41644;DHT22;44236;48.098;11.582;2023-02-01T13:17:31;18.00;42.50
41644;DHT22;44236;48.098;11.582;2023-02-01T13:20:19;18.00;42.70
41644;DHT22;44236;48.098;11.582;2023-02-01T13:22:51;18.00;42.30
41644;DHT22;44236;48.098;11.582;2023-02-01T13:25:23;18.00;42.30
41644;DHT22;44236;48.098;11.582;2023-02-01T13:27:54;18.00;42.30
41644;DHT22;44236;48.098;11.582;2023-02-01T13:30:25;18.00;41.80
41644;DHT22;44236;48.098;11.582;2023-02-01T13:33:19;18.00;42.20
41644;DHT22;44236;48.098;11.582;2023-02-01T13:38:54;18.00;42.20
41644;DHT22;44236;48.098;11.582;2023-02-01T13:41:33;18.00;42.30
41644;DHT22;44236;48.098;11.582;2023-02-01T13:44:16;18.00;42.20
41644;DHT22;44236;48.098;11.582;2023-02-01T13:46:46;18.00;42.60
41644;DHT22;44236;48.098;11.582;2023-02-01T13:49:21;18.00;42.20
41644;DHT22;44236;48.098;11.582;2023-02-01T13:51:51;18.00;42.10
41644;DHT22;44236;48.098;11.582;2023-02-01T13:54:33;18.00;42.20
41644;DHT22;44236;48.098;11.582;2023-02-01T13:57:01;18.00;42.10
41644;DHT22;44236;48.098;11.582;2023-02-01T14:18:49;18.00;41.90
41644;DHT22;44236;48.098;11.582;2023-02-01T14:21:35;18.00;42.00
41644;DHT22;44236;48.098;11.582;2023-02-01T14:34:23;18.00;41.80
41644;DHT22;44236;48.098;11.582;2023-02-01T14:37:09;18.00;41.80
41644;DHT22;44236;48.098;11.582;2023-02-01T14:44:47;18.00;41.90
41644;DHT22;44236;48.098;11.582;2023-02-01T14:47:30;18.00;41.80
41644;DHT22;44236;48.098;11.582;2023-02-01T14:50:11;18.00;41.80
41644;DHT22;44236;48.098;11.582;2023-02-01T14:52:40;18.00;41.80
41644;DHT22;44236;48.098;11.582;2023-02-01T14:55:29;18.00;41.70
41644;DHT22;44236;48.098;11.582;2023-02-01T14:57:58;18.00;41.70
41644;DHT22;44236;48.098;11.582;2023-02-01T15:00:28;18.00;41.70
41644;DHT22;44236;48.098;11.582;2023-02-01T15:03:13;18.00;41.70
41644;DHT22;44236;48.098;11.582;2023-02-01T15:05:41;18.00;41.60
41644;DHT22;44236;48.098;11.582;2023-02-01T15:08:22;18.00;41.60
41644;DHT22;44236;48.098;11.582;2023-02-01T15:10:50;18.00;41.60
41644;DHT22;44236;48.098;11.582;2023-02-01T15:13:25;18.00;41.60
41644;DHT22;44236;48.098;11.582;2023-02-01T15:18:30;18.00;41.60
41644;DHT22;44236;48.098;11.582;2023-02-01T15:20:58;18.00;41.80
41644;DHT22;44236;48.098;11.582;2023-02-01T15:23:24;18.00;41.60
41644;DHT22;44236;48.098;11.582;2023-02-01T15:25:49;18.00;41.50
41644;DHT22;44236;48.098;11.582;2023-02-01T15:28:16;18.00;41.50
41644;DHT22;44236;48.098;11.582;2023-02-01T15:31:14;18.00;41.10
41644;DHT22;44236;48.098;11.582;2023-02-01T15:33:56;18.00;41.40
41644;DHT22;44236;48.098;11.582;2023-02-01T15:36:23;17.50;37.50
41644;DHT22;44236;48.098;11.582;2023-02-01T15:39:23;17.10;38.10
41644;DHT22;44236;48.098;11.582;2023-02-01T15:42:10;17.10;39.80
41644;DHT22;44236;48.098;11.582;2023-02-01T15:44:45;17.30;40.50
41644;DHT22;44236;48.098;11.582;2023-02-01T15:47:17;17.40;40.50
41644;DHT22;44236;48.098;11.582;2023-02-01T15:49:45;17.60;40.50
41644;DHT22;44236;48.098;11.582;2023-02-01T15:52:38;17.60;40.60
41644;DHT22;44236;48.098;11.582;2023-02-01T15:55:20;17.70;40.50
41644;DHT22;44236;48.098;11.582;2023-02-01T15:57:46;17.70;40.60
41644;DHT22;44236;48.098;11.582;2023-02-01T16:00:30;17.70;40.50
41644;DHT22;44236;48.098;11.582;2023-02-01T16:03:06;17.70;40.60
41644;DHT22;44236;48.098;11.582;2023-02-01T16:05:56;17.70;40.60
41644;DHT22;44236;48.098;11.582;2023-02-01T16:08:23;17.80;40.70
41644;DHT22;44236;48.098;11.582;2023-02-01T16:10:53;17.80;40.90
41644;DHT22;44236;48.098;11.582;2023-02-01T16:13:20;17.90;41.40
41644;DHT22;44236;48.098;11.582;2023-02-01T16:15:47;17.90;41.70
41644;DHT22;44236;48.098;11.582;2023-02-01T16:18:13;17.90;41.40
41644;DHT22;44236;48.098;11.582;2023-02-01T16:20:41;17.90;41.50
41644;DHT22;44236;48.098;11.582;2023-02-01T16:23:08;18.80;42.20
41644;DHT22;44236;48.098;11.582;2023-02-01T16:25:34;18.00;42.20
41644;DHT22;44236;48.098;11.582;2023-02-01T16:28:00;18.10;42.70
41644;DHT22;44236;48.098;11.582;2023-02-01T16:30:25;18.10;42.20
41644;DHT22;44236;48.098;11.582;2023-02-01T16:32:56;18.10;41.90
41644;DHT22;44236;48.098;11.582;2023-02-01T16:37:48;18.30;42.00
41644;DHT22;44236;48.098;11.582;2023-02-01T16:40:15;18.20;42.90
41644;DHT22;44236;48.098;11.582;2023-02-01T16:42:41;18.30;41.70
41644;DHT22;44236;48.098;11.582;2023-02-01T16:45:07;18.30;42.30
41644;DHT22;44236;48.098;11.582;2023-02-01T16:47:34;18.30;42.80
41644;DHT22;44236;48.098;11.582;2023-02-01T16:50:02;18.30;43.10
41644;DHT22;44236;48.098;11.582;2023-02-01T16:52:27;18.30;43.10
41644;DHT22;44236;48.098;11.582;2023-02-01T16:54:53;18.30;42.30
41644;DHT22;44236;48.098;11.582;2023-02-01T16:57:19;18.40;43.80
41644;DHT22;44236;48.098;11.582;2023-02-01T16:59:48;18.30;43.50
41644;DHT22;44236;48.098;11.582;2023-02-01T17:02:15;18.40;43.70
41644;DHT22;44236;48.098;11.582;2023-02-01T17:04:41;18.40;43.50
41644;DHT22;44236;48.098;11.582;2023-02-01T17:07:12;18.40;43.70
41644;DHT22;44236;48.098;11.582;2023-02-01T17:09:39;18.30;43.80
41644;DHT22;44236;48.098;11.582;2023-02-01T17:12:05;18.40;43.70
41644;DHT22;44236;48.098;11.582;2023-02-01T17:14:34;18.30;43.80
41644;DHT22;44236;48.098;11.582;2023-02-01T17:17:01;18.30;43.70
41644;DHT22;44236;48.098;11.582;2023-02-01T17:19:27;18.40;43.50
41644;DHT22;44236;48.098;11.582;2023-02-01T17:21:54;18.40;43.50
41644;DHT22;44236;48.098;11.582;2023-02-01T17:24:29;18.40;43.60
41644;DHT22;44236;48.098;11.582;2023-02-01T17:26:55;18.40;43.60
41644;DHT22;44236;48.098;11.582;2023-02-01T17:29:20;18.40;44.00
41644;DHT22;44236;48.098;11.582;2023-02-01T17:31:53;18.50;43.80
41644;DHT22;44236;48.098;11.582;2023-02-01T17:34:21;18.50;43.70
41644;DHT22;44236;48.098;11.582;2023-02-01T17:36:48;18.50;43.80
41644;DHT22;44236;48.098;11.582;2023-02-01T17:39:14;18.50;42.60
41644;DHT22;44236;48.098;11.582;2023-02-01T17:42:00;18.50;43.50
41644;DHT22;44236;48.098;11.582;2023-02-01T17:44:26;18.50;43.50
41644;DHT22;44236;48.098;11.582;2023-02-01T17:46:52;18.50;43.70
41644;DHT22;44236;48.098;11.582;2023-02-01T17:49:17;18.50;44.00
41644;DHT22;44236;48.098;11.582;2023-02-01T17:51:43;18.60;44.50
41644;DHT22;44236;48.098;11.582;2023-02-01T17:54:12;18.60;44.00
41644;DHT22;44236;48.098;11.582;2023-02-01T17:56:38;18.60;44.60
41644;DHT22;44236;48.098;11.582;2023-02-01T17:59:03;18.60;43.90
41644;DHT22;44236;48.098;11.582;2023-02-01T18:01:29;18.60;44.00
41644;DHT22;44236;48.098;11.582;2023-02-01T18:03:55;18.60;43.80
41644;DHT22;44236;48.098;11.582;2023-02-01T18:06:23;18.60;43.50
41644;DHT22;44236;48.098;11.582;2023-02-01T18:08:51;18.60;43.70
41644;DHT22;44236;48.098;11.582;2023-02-01T18:11:18;18.60;44.30
41644;DHT22;44236;48.098;11.582;2023-02-01T18:13:45;18.70;44.10
41644;DHT22;44236;48.098;11.582;2023-02-01T18:16:26;18.70;45.00
41644;DHT22;44236;48.098;11.582;2023-02-01T18:18:53;18.70;44.50